createdAt,value
2018-04-01T00:02:04.814Z,38.47
2018-04-01T00:04:38.462Z,35.43
2018-04-01T00:07:12.122Z,32.00
2018-04-01T00:09:45.822Z,35.97
2018-04-01T00:12:19.630Z,35.17
2018-04-01T00:14:54.135Z,34.10
2018-04-01T00:17:27.861Z,37.73
2018-04-01T00:20:01.470Z,34.47
2018-04-01T00:22:35.082Z,36.20
2018-04-01T00:25:08.782Z,36.83
2018-04-01T00:27:43.390Z,36.80
2018-04-01T00:30:17.049Z,36.47
2018-04-01T00:32:50.905Z,34.90
2018-04-01T00:35:24.529Z,35.27
2018-04-01T00:37:58.114Z,33.83
2018-04-01T00:40:31.710Z,38.57
2018-04-01T00:43:05.544Z,34.87
2018-04-01T00:45:40.025Z,42.53
2018-04-01T00:48:13.609Z,38.33
2018-04-01T00:50:47.963Z,39.80
2018-04-01T00:53:21.637Z,39.03
2018-04-01T00:55:55.372Z,38.00
2018-04-01T00:58:29.070Z,37.27
2018-04-01T01:01:02.661Z,42.23
2018-04-01T01:03:36.279Z,37.50
2018-04-01T01:06:09.898Z,35.37
2018-04-01T01:08:43.594Z,38.33
2018-04-01T01:11:17.486Z,41.50
2018-04-01T01:13:51.198Z,35.73
2018-04-01T01:16:25.794Z,36.47
2018-04-01T01:18:59.626Z,39.97
2018-04-01T01:21:33.442Z,42.23
2018-04-01T01:24:07.238Z,42.33
2018-04-01T01:26:40.893Z,42.30
2018-04-01T01:29:14.542Z,42.80
2018-04-01T01:31:48.146Z,45.13
2018-04-01T01:34:21.946Z,42.67
2018-04-01T01:36:55.545Z,46.10
2018-04-01T01:39:29.358Z,46.97
2018-04-01T01:42:03.009Z,48.53
2018-04-01T01:44:37.373Z,45.40
2018-04-01T01:47:11.182Z,45.33
2018-04-01T01:49:44.938Z,43.93
2018-04-01T01:52:18.633Z,45.87
2018-04-01T01:54:52.414Z,43.47
2018-04-01T01:57:26.018Z,43.27
2018-04-01T01:59:59.638Z,47.63
2018-04-01T02:02:33.310Z,41.87
2018-04-01T02:05:07.199Z,41.37
2018-04-01T02:07:40.873Z,46.63
2018-04-01T02:10:14.617Z,46.53
2018-04-01T02:12:48.210Z,47.97
2018-04-01T02:15:21.826Z,47.47
2018-04-01T02:17:55.425Z,47.07
2018-04-01T02:20:29.235Z,46.73
2018-04-01T02:23:03.038Z,45.90
2018-04-01T02:25:36.646Z,50.53
2018-04-01T02:28:10.242Z,46.00
2018-04-01T02:30:43.946Z,47.07
2018-04-01T02:33:17.652Z,43.93
2018-04-01T02:35:51.292Z,46.37
2018-04-01T02:38:25.071Z,45.27
2018-04-01T02:40:58.770Z,47.30
2018-04-01T02:43:33.897Z,44.20
2018-04-01T02:46:07.602Z,43.67
2018-04-01T02:48:41.215Z,42.70
2018-04-01T02:51:14.792Z,43.80
2018-04-01T02:53:48.451Z,42.87
2018-04-01T02:56:22.039Z,46.03
2018-04-01T02:58:55.608Z,43.27
2018-04-01T03:01:30.134Z,42.47
2018-04-01T03:04:04.151Z,46.93
2018-04-01T03:06:37.782Z,46.17
2018-04-01T03:09:11.559Z,46.30
2018-04-01T03:11:45.173Z,42.63
2018-04-01T03:14:18.862Z,43.87
2018-04-01T03:16:52.674Z,40.10
2018-04-01T03:19:26.258Z,43.47
2018-04-01T03:21:59.980Z,44.50
2018-04-01T03:24:33.675Z,41.20
2018-04-01T03:27:07.254Z,45.13
2018-04-01T03:29:40.967Z,43.17
2018-04-01T03:32:15.510Z,41.60
2018-04-01T03:34:49.090Z,39.83
2018-04-01T03:37:22.710Z,43.90
2018-04-01T03:39:56.326Z,38.37
2018-04-01T03:42:30.125Z,39.40
2018-04-01T03:45:04.654Z,45.87
2018-04-01T03:47:39.265Z,41.37
2018-04-01T03:50:13.034Z,42.53
2018-04-01T03:52:46.674Z,47.27
2018-04-01T03:55:20.314Z,47.10
2018-04-01T03:57:53.906Z,39.97
2018-04-01T04:00:27.765Z,45.20
2018-04-01T04:03:01.330Z,41.37
2018-04-01T04:05:34.957Z,42.17
2018-04-01T04:08:08.577Z,45.73
2018-04-01T04:10:42.294Z,42.17
2018-04-01T04:13:16.002Z,43.50
2018-04-01T04:15:49.910Z,43.90
2018-04-01T04:18:23.617Z,39.43
2018-04-01T04:20:57.283Z,44.47
2018-04-01T04:23:31.022Z,41.90
2018-04-01T04:26:04.827Z,42.17
2018-04-01T04:28:39.370Z,43.47
2018-04-01T04:31:13.133Z,40.93
2018-04-01T04:33:46.865Z,39.37
2018-04-01T04:36:20.567Z,37.03
2018-04-01T04:38:54.370Z,38.87
2018-04-01T04:41:28.073Z,37.03
2018-04-01T04:44:01.839Z,39.20
2018-04-01T04:46:35.772Z,38.10
2018-04-01T04:49:10.225Z,38.97
2018-04-01T04:51:44.614Z,36.60
2018-04-01T04:54:18.289Z,39.50
2018-04-01T04:56:51.905Z,39.40
2018-04-01T04:59:25.534Z,40.90
2018-04-01T05:01:59.238Z,38.10
2018-04-01T05:04:32.842Z,40.17
2018-04-01T05:07:06.446Z,40.20
2018-04-01T05:09:40.250Z,39.97
2018-04-01T05:12:14.058Z,41.23
2018-04-01T05:14:48.450Z,40.00
2018-04-01T05:17:22.388Z,42.20
2018-04-01T05:19:56.018Z,39.67
2018-04-01T05:22:29.666Z,40.17
2018-04-01T05:25:03.394Z,39.10
2018-04-01T05:27:38.530Z,39.13
2018-04-01T05:30:12.954Z,41.20
2018-04-01T05:32:46.649Z,41.03
2018-04-01T05:35:20.346Z,40.57
2018-04-01T05:37:56.314Z,41.07
2018-04-01T05:40:30.126Z,41.57
2018-04-01T05:43:03.718Z,43.97
2018-04-01T05:45:37.354Z,43.23
2018-04-01T05:48:11.030Z,39.73
2018-04-01T05:50:44.637Z,41.27
2018-04-01T05:53:18.442Z,41.33
2018-04-01T05:55:52.090Z,40.07
2018-04-01T05:58:25.698Z,40.63
2018-04-01T06:00:59.310Z,40.20
2018-04-01T06:03:33.146Z,41.40
2018-04-01T06:06:06.960Z,41.17
2018-04-01T06:08:41.365Z,43.13
2018-04-01T06:11:15.250Z,40.30
2018-04-01T06:13:48.966Z,42.83
2018-04-01T06:16:22.616Z,44.73
2018-04-01T06:18:56.284Z,40.23
2018-04-01T06:21:30.105Z,39.27
2018-04-01T06:24:04.798Z,44.23
2018-04-01T06:26:38.426Z,41.63
2018-04-01T06:29:12.019Z,40.57
2018-04-01T06:31:45.790Z,43.63
2018-04-01T06:34:20.361Z,39.97
2018-04-01T06:36:54.037Z,38.40
2018-04-01T06:39:28.501Z,37.70
2018-04-01T06:42:02.937Z,36.37
2018-04-01T06:44:37.314Z,39.90
2018-04-01T06:47:10.997Z,39.87
2018-04-01T06:49:44.666Z,37.67
2018-04-01T06:52:18.236Z,38.27
2018-04-01T06:54:51.849Z,35.70
2018-04-01T06:57:25.513Z,36.33
2018-04-01T06:59:59.247Z,36.23
2018-04-01T07:02:33.092Z,33.97
2018-04-01T07:05:06.613Z,30.07
2018-04-01T07:07:40.208Z,29.43
2018-04-01T07:10:13.866Z,32.63
2018-04-01T07:12:47.585Z,32.03
2018-04-01T07:15:21.223Z,31.63
2018-04-01T07:17:54.940Z,30.50
2018-04-01T07:20:28.573Z,31.53
2018-04-01T07:23:02.188Z,29.23
2018-04-01T07:25:35.783Z,28.90
2018-04-01T07:28:09.581Z,30.97
2018-04-01T07:30:43.342Z,36.70
2018-04-01T07:33:16.972Z,32.67
2018-04-01T07:35:50.843Z,34.87
2018-04-01T07:38:24.580Z,38.03
2018-04-01T07:40:58.689Z,41.60
2018-04-01T07:43:32.627Z,39.63
2018-04-01T07:46:06.258Z,39.67
2018-04-01T07:48:39.845Z,40.37
2018-04-01T07:51:14.449Z,46.33
2018-04-01T07:53:48.354Z,40.17
2018-04-01T07:56:22.066Z,44.00
2018-04-01T07:58:55.752Z,43.37
2018-04-01T08:01:29.782Z,39.97
2018-04-01T08:04:03.470Z,42.77
2018-04-01T08:06:37.294Z,43.90
2018-04-01T08:09:11.099Z,46.73
2018-04-01T08:11:44.701Z,41.67
2018-04-01T08:14:18.303Z,43.90
2018-04-01T08:17:10.722Z,42.53
2018-04-01T08:19:44.450Z,41.80
2018-04-01T08:22:18.046Z,42.23
2018-04-01T08:24:51.767Z,38.70
2018-04-01T08:27:25.374Z,40.00
2018-04-01T08:30:00.285Z,39.37
2018-04-01T08:32:33.986Z,40.43
2018-04-01T08:35:08.518Z,35.90
2018-04-01T08:37:42.324Z,36.27
2018-04-01T08:40:15.906Z,33.93
2018-04-01T08:42:49.933Z,36.17
2018-04-01T08:45:23.639Z,37.20
2018-04-01T08:47:57.538Z,37.77
2018-04-01T08:50:31.349Z,35.50
2018-04-01T08:53:05.069Z,36.03
2018-04-01T08:55:38.666Z,33.93
2018-04-01T08:58:12.234Z,33.43
2018-04-01T09:00:46.498Z,30.50
2018-04-01T09:03:20.254Z,32.77
2018-04-01T09:05:53.985Z,32.53
2018-04-01T09:08:27.726Z,30.97
2018-04-01T09:11:01.297Z,32.87
2018-04-01T09:13:34.875Z,33.17
2018-04-01T09:16:08.487Z,34.37
2018-04-01T09:18:43.641Z,36.97
2018-04-01T09:21:17.450Z,41.80
2018-04-01T09:23:51.109Z,43.43
2018-04-01T09:26:24.727Z,40.23
2018-04-01T09:28:59.157Z,43.90
2018-04-01T09:31:32.785Z,43.33
2018-04-01T09:34:06.433Z,47.87
2018-04-01T09:36:40.807Z,43.67
2018-04-01T09:39:15.306Z,44.77
2018-04-01T09:41:49.017Z,45.30
2018-04-01T09:44:22.618Z,46.03
2018-04-01T09:46:57.063Z,44.43
2018-04-01T09:49:30.753Z,46.40
2018-04-01T09:52:04.550Z,45.87
2018-04-01T09:54:40.184Z,46.63
2018-04-01T09:57:12.299Z,45.97
2018-04-01T09:59:47.134Z,47.70
2018-04-01T10:02:21.518Z,46.17
2018-04-01T10:05:16.113Z,54.80
2018-04-01T10:07:50.314Z,52.50
2018-04-01T10:10:25.430Z,52.73
2018-04-01T10:12:59.910Z,48.43
2018-04-01T10:15:34.198Z,49.87
2018-04-01T10:18:09.317Z,51.67
2018-04-01T10:20:44.558Z,48.63
2018-04-01T10:23:19.019Z,51.03
2018-04-01T10:25:54.109Z,53.73
2018-04-01T10:28:28.523Z,58.50
2018-04-01T10:31:02.921Z,61.07
2018-04-01T10:33:38.177Z,65.10
2018-04-01T10:36:12.790Z,62.43
2018-04-01T10:38:47.158Z,59.63
2018-04-01T10:41:21.566Z,59.60
2018-04-01T10:43:56.005Z,62.83
2018-04-01T10:46:30.269Z,63.13
2018-04-01T10:49:04.542Z,59.83
2018-04-01T10:51:38.942Z,63.53
2018-04-01T10:54:12.862Z,66.17
2018-04-01T10:56:47.748Z,66.00
2018-04-01T10:59:21.428Z,63.10
2018-04-01T11:01:54.998Z,68.67
2018-04-01T11:04:28.687Z,64.00
2018-04-01T11:07:02.331Z,63.30
2018-04-01T11:09:36.030Z,66.07
2018-04-01T11:12:09.606Z,65.07
2018-04-01T11:14:43.260Z,62.70
2018-04-01T11:17:17.344Z,57.80
2018-04-01T11:19:51.750Z,57.23
2018-04-01T11:22:26.375Z,59.53
2018-04-01T11:25:01.004Z,57.57
2018-04-01T11:27:36.566Z,61.83
2018-04-01T11:30:10.717Z,63.77
2018-04-01T11:32:45.710Z,63.97
2018-04-01T11:35:19.364Z,54.63
2018-04-01T11:37:53.210Z,58.23
2018-04-01T11:40:26.896Z,50.50
2018-04-01T11:43:02.584Z,56.13
2018-04-01T11:45:36.305Z,47.73
2018-04-01T11:48:10.030Z,51.83
2018-04-01T11:50:43.680Z,49.63
2018-04-01T11:53:17.365Z,47.20
2018-04-01T11:55:51.186Z,46.23
2018-04-01T11:58:24.850Z,41.20
2018-04-01T12:00:58.478Z,45.20
2018-04-01T12:03:32.906Z,52.13
2018-04-01T12:06:06.508Z,52.77
2018-04-01T12:08:41.813Z,49.00
2018-04-01T12:11:16.582Z,51.03
2018-04-01T12:13:50.177Z,54.83
2018-04-01T12:16:24.211Z,53.07
2018-04-01T12:18:59.025Z,53.83
2018-04-01T12:21:32.770Z,51.00
2018-04-01T12:24:06.483Z,52.97
2018-04-01T12:26:40.082Z,54.40
2018-04-01T12:29:13.719Z,49.60
2018-04-01T12:31:48.569Z,47.13
2018-04-01T12:34:22.182Z,43.83
2018-04-01T12:36:56.449Z,46.53
2018-04-01T12:39:30.235Z,44.00
2018-04-01T12:42:04.006Z,43.23
2018-04-01T12:44:38.393Z,38.73
2018-04-01T12:47:12.118Z,40.13
2018-04-01T12:49:45.742Z,38.77
2018-04-01T12:52:20.353Z,40.80
2018-04-01T12:54:54.039Z,40.70
2018-04-01T12:57:28.470Z,42.10
2018-04-01T13:00:02.162Z,43.53
2018-04-01T13:02:35.969Z,42.37
2018-04-01T13:05:09.798Z,44.43
2018-04-01T13:07:43.441Z,40.27
2018-04-01T13:10:18.222Z,37.53
2018-04-01T13:12:52.243Z,39.67
2018-04-01T13:15:27.458Z,39.67
2018-04-01T13:18:01.062Z,38.43
2018-04-01T13:20:34.765Z,45.33
2018-04-01T13:23:08.549Z,45.20
2018-04-01T13:25:45.355Z,42.80
2018-04-01T13:28:19.470Z,39.20
2018-04-01T13:30:53.141Z,37.47
2018-04-01T13:33:26.986Z,33.80
2018-04-01T13:36:01.343Z,32.20
2018-04-01T13:38:35.822Z,36.20
2018-04-01T13:41:09.486Z,29.97
2018-04-01T13:43:44.022Z,29.70
2018-04-01T13:46:17.859Z,28.03
2018-04-01T13:48:52.478Z,28.90
2018-04-01T13:51:26.091Z,33.93
2018-04-01T13:54:00.068Z,27.60
2018-04-01T13:56:33.751Z,28.40
2018-04-01T13:59:07.717Z,26.17
2018-04-01T14:01:41.464Z,27.20
2018-04-01T14:04:15.746Z,25.90
2018-04-01T14:06:49.646Z,29.47
2018-04-01T14:09:23.270Z,29.13
2018-04-01T14:11:57.339Z,27.73
2018-04-01T14:14:31.678Z,28.03
2018-04-01T14:17:05.381Z,27.30
2018-04-01T14:19:39.396Z,24.47
2018-04-01T14:22:14.326Z,26.20
2018-04-01T14:24:47.925Z,26.33
2018-04-01T14:27:21.715Z,28.57
2018-04-01T14:29:55.298Z,27.10
2018-04-01T14:32:29.023Z,25.23
2018-04-01T14:35:03.462Z,25.07
2018-04-01T14:37:37.158Z,24.77
2018-04-01T14:40:10.754Z,22.90
2018-04-01T14:42:45.294Z,22.10
2018-04-01T14:45:18.895Z,23.97
2018-04-01T14:47:52.599Z,25.57
2018-04-01T14:50:26.358Z,26.90
2018-04-01T14:53:00.011Z,27.73
2018-04-01T14:55:34.098Z,27.63
2018-04-01T14:58:09.563Z,25.07
2018-04-01T15:00:43.102Z,42.00
2018-04-01T15:03:16.795Z,25.70
2018-04-01T15:05:50.369Z,26.20
2018-04-01T15:08:24.136Z,25.73
2018-04-01T15:10:57.786Z,38.60
2018-04-01T15:13:31.479Z,33.97
2018-04-01T15:16:06.101Z,24.23
2018-04-01T15:18:39.779Z,24.07
2018-04-01T15:21:14.418Z,30.20
2018-04-01T15:23:47.967Z,38.80
2018-04-01T15:26:23.822Z,36.17
2018-04-01T15:28:57.486Z,32.90
2018-04-01T15:31:31.265Z,40.23
2018-04-01T15:34:05.126Z,37.47
2018-04-01T15:36:38.822Z,41.23
2018-04-01T15:39:12.403Z,28.43
2018-04-01T15:41:46.218Z,24.87
2018-04-01T15:44:19.877Z,21.37
2018-04-01T15:46:53.461Z,28.93
2018-04-01T15:49:27.049Z,29.77
2018-04-01T15:52:00.876Z,27.60
2018-04-01T15:54:34.511Z,27.43
2018-04-01T15:57:08.226Z,28.97
2018-04-01T15:59:43.667Z,29.37
2018-04-01T16:02:18.315Z,29.70
2018-04-01T16:04:52.006Z,26.70
2018-04-01T16:07:25.619Z,30.40
2018-04-01T16:09:59.293Z,25.87
2018-04-01T16:12:34.870Z,33.07
2018-04-01T16:15:08.430Z,27.20
2018-04-01T16:17:42.076Z,27.50
2018-04-01T16:20:15.687Z,30.53
2018-04-01T16:22:49.277Z,34.97
2018-04-01T16:25:23.013Z,31.70
2018-04-01T16:27:57.374Z,32.13
2018-04-01T16:30:30.997Z,28.50
2018-04-01T16:33:04.698Z,33.17
2018-04-01T16:35:40.371Z,30.07
2018-04-01T16:38:14.058Z,26.03
2018-04-01T16:40:47.718Z,24.83
2018-04-01T16:43:21.318Z,22.13
2018-04-01T16:45:54.918Z,24.87
2018-04-01T16:48:29.415Z,25.73
2018-04-01T16:51:03.454Z,29.20
2018-04-01T16:53:37.194Z,26.40
2018-04-01T16:56:10.767Z,18.57
2018-04-01T16:58:44.482Z,17.53
2018-04-01T17:01:18.928Z,16.83
2018-04-01T17:03:52.494Z,18.27
2018-04-01T17:06:26.842Z,15.93
2018-04-01T17:09:00.641Z,20.03
2018-04-01T17:11:34.234Z,18.90
2018-04-01T17:14:07.957Z,18.37
2018-04-01T17:16:41.754Z,21.30
2018-04-01T17:19:15.362Z,24.23
2018-04-01T17:21:49.066Z,26.33
2018-04-01T17:24:22.717Z,26.00
2018-04-01T17:26:56.573Z,28.03
2018-04-01T17:29:30.206Z,31.03
2018-04-01T17:32:04.586Z,41.93
2018-04-01T17:34:42.628Z,37.63
2018-04-01T17:37:16.666Z,46.60
2018-04-01T17:39:50.534Z,58.13
2018-04-01T17:42:24.223Z,54.97
2018-04-01T17:44:57.798Z,54.90
2018-04-01T17:47:31.730Z,43.93
2018-04-01T17:50:05.450Z,36.87
2018-04-01T17:52:39.870Z,26.87
2018-04-01T17:55:13.769Z,30.97
2018-04-01T17:57:48.399Z,26.63
2018-04-01T18:00:22.073Z,45.13
2018-04-01T18:02:55.714Z,47.10
2018-04-01T18:05:29.346Z,38.00
2018-04-01T18:08:03.630Z,30.13
2018-04-01T18:10:37.422Z,21.73
2018-04-01T18:13:11.428Z,19.90
2018-04-01T18:15:45.758Z,33.00
2018-04-01T18:18:19.445Z,36.30
2018-04-01T18:20:53.187Z,33.50
2018-04-01T18:23:26.897Z,57.00
2018-04-01T18:26:00.482Z,66.17
2018-04-01T18:28:34.158Z,64.83
2018-04-01T18:31:07.790Z,99.73
2018-04-01T18:33:41.391Z,103.90
2018-04-01T18:36:14.982Z,103.90
2018-04-01T18:38:48.729Z,144.40
2018-04-01T18:41:22.396Z,176.00
2018-04-01T18:43:56.193Z,178.97
2018-04-01T18:46:29.862Z,178.33
2018-04-01T18:49:03.706Z,181.27
2018-04-01T18:51:37.513Z,166.80
2018-04-01T18:54:12.649Z,169.47
2018-04-01T18:56:46.341Z,171.40
2018-04-01T18:59:20.670Z,159.87
2018-04-01T19:01:54.442Z,162.40
2018-04-01T19:04:28.468Z,143.80
2018-04-01T19:07:02.118Z,133.17
2018-04-01T19:09:35.894Z,124.43
2018-04-01T19:12:09.683Z,115.90
2018-04-01T19:14:43.305Z,109.47
2018-04-01T19:17:17.374Z,100.27
2018-04-01T19:19:52.015Z,84.53
2018-04-01T19:22:26.406Z,77.30
2018-04-01T19:25:00.678Z,68.03
2018-04-01T19:27:35.185Z,60.17
2018-04-01T19:30:11.041Z,67.83
2018-04-01T19:32:45.298Z,57.30
2018-04-01T19:35:20.513Z,57.20
2018-04-01T19:37:55.110Z,54.70
2018-04-01T19:40:34.274Z,58.90
2018-04-01T19:43:08.996Z,59.70
2018-04-01T19:45:43.382Z,72.47
2018-04-01T19:48:17.730Z,74.33
2018-04-01T19:50:52.753Z,70.83
2018-04-01T19:53:27.602Z,76.73
2018-04-01T19:56:05.080Z,69.77
2018-04-01T19:58:39.686Z,73.60
2018-04-01T20:01:14.250Z,77.17
2018-04-01T20:03:48.659Z,73.60
2018-04-01T20:06:23.061Z,71.23
2018-04-01T20:08:59.114Z,67.70
2018-04-01T20:11:33.660Z,71.00
2018-04-01T20:14:08.069Z,68.37
2018-04-01T20:16:42.510Z,71.90
2018-04-01T20:19:16.921Z,68.47
2018-04-01T20:21:51.302Z,70.90
2018-04-01T20:24:25.902Z,69.20
2018-04-01T20:27:00.168Z,70.53
2018-04-01T20:29:34.486Z,77.00
2018-04-01T20:32:09.036Z,71.43
2018-04-01T20:34:44.065Z,74.70
2018-04-01T20:37:18.612Z,72.00
2018-04-01T20:39:52.995Z,74.10
2018-04-01T20:42:27.529Z,75.23
2018-04-01T20:45:02.062Z,74.53
2018-04-01T20:47:37.250Z,76.00
2018-04-01T20:50:11.597Z,79.80
2018-04-01T20:52:46.445Z,85.93
2018-04-01T20:55:21.022Z,90.60
2018-04-01T20:57:55.518Z,80.17
2018-04-01T21:00:29.886Z,80.03
2018-04-01T21:03:05.046Z,76.20
2018-04-01T21:05:39.494Z,76.23
2018-04-01T21:08:14.109Z,83.00
2018-04-01T21:10:48.475Z,82.90
2018-04-01T21:13:22.842Z,90.77
2018-04-01T21:15:57.213Z,96.53
2018-04-01T21:18:31.768Z,93.67
2018-04-01T21:21:06.290Z,92.70
2018-04-01T21:23:40.921Z,98.73
2018-04-01T21:26:15.315Z,93.93
2018-04-01T21:28:49.626Z,99.57
2018-04-01T21:31:24.514Z,92.10
2018-04-01T21:33:58.918Z,103.03
2018-04-01T21:36:33.250Z,103.33
2018-04-01T21:39:07.657Z,102.47
2018-04-01T21:41:42.914Z,97.40
2018-04-01T21:44:17.418Z,96.97
2018-04-01T21:46:51.952Z,91.37
2018-04-01T21:49:26.233Z,84.87
2018-04-01T21:52:00.574Z,84.80
2018-04-01T21:54:36.130Z,82.70
2018-04-01T21:57:10.562Z,79.63
2018-04-01T21:59:44.955Z,81.03
2018-04-01T22:02:19.302Z,81.10
2018-04-01T22:04:53.629Z,77.80
2018-04-01T22:07:28.169Z,81.37
2018-04-01T22:10:02.552Z,83.47
2018-04-01T22:12:37.174Z,86.20
2018-04-01T22:15:11.466Z,89.33
2018-04-01T22:17:46.521Z,99.53
2018-04-01T22:20:20.946Z,104.63
2018-04-01T22:23:07.590Z,120.60
2018-04-01T22:25:41.889Z,110.23
2018-04-01T22:28:16.394Z,104.17
2018-04-01T22:30:51.434Z,99.80
2018-04-01T22:33:25.957Z,102.93
2018-04-01T22:36:00.378Z,105.27
2018-04-01T22:38:34.774Z,102.53
2018-04-01T22:41:10.039Z,99.07
2018-04-01T22:43:44.667Z,95.27
2018-04-01T22:46:18.925Z,96.77
2018-04-01T22:48:53.193Z,89.90
2018-04-01T22:51:27.524Z,87.07
2018-04-01T22:54:01.955Z,89.50
2018-04-01T22:56:36.318Z,87.33
2018-04-01T22:59:10.586Z,84.47
2018-04-01T23:01:45.457Z,80.13
2018-04-01T23:04:20.613Z,82.50
2018-04-01T23:06:55.082Z,76.23
2018-04-01T23:09:29.865Z,77.03
2018-04-01T23:12:04.330Z,69.80
2018-04-01T23:14:38.615Z,70.87
2018-04-01T23:17:12.894Z,68.70
2018-04-01T23:19:47.694Z,62.87
2018-04-01T23:22:22.318Z,62.97
2018-04-01T23:24:56.695Z,63.30
2018-04-01T23:27:31.054Z,60.80
2018-04-01T23:30:06.149Z,61.97
2018-04-01T23:32:40.606Z,69.70
2018-04-01T23:35:15.097Z,79.00
2018-04-01T23:37:49.566Z,78.97
2018-04-01T23:40:24.378Z,78.23
2018-04-01T23:42:58.793Z,83.53
2018-04-01T23:45:33.192Z,91.63
2018-04-01T23:48:07.575Z,96.50
2018-04-01T23:50:42.030Z,99.13
2018-04-01T23:53:17.180Z,100.17
2018-04-01T23:55:52.210Z,100.47
2018-04-01T23:58:27.250Z,98.80
